Time;durP1;ratioP1;P1;durP2;ratioP2;P2;SDS_P1;SDS_P2;PMS_P1;PMS_P2;Temp;Humidity;BMP_temperature;BMP_pressure;BME280_temperature;BME280_humidity;BME280_pressure;Samples;Min_cycle;Max_cycle;Signal;HPM_P1;HPM_P2
2022/11/24 00:02:07;;;;;;;73.25;23.52;;;;;;;;;;5130446;27;20047;-42
2022/11/24 00:04:34;;;;;;;70.63;25.67;;;;;;;;;;5130933;27;20039;-41
2022/11/24 00:07:01;;;;;;;69.70;24.02;;;;;;;;;;5129820;27;20475;-41
2022/11/24 00:09:28;;;;;;;81.57;27.10;;;;;;;;;;5129589;27;20479;-42
2022/11/24 00:11:55;;;;;;;70.55;23.92;;;;;;;;;;5130315;27;20045;-41
2022/11/24 00:14:22;;;;;;;70.90;24.90;;;;;;;;;;5108341;27;20041;-41
2022/11/24 00:16:48;;;;;;;72.38;24.55;;;;;;;;;;5128932;27;20043;-41
2022/11/24 00:19:15;;;;;;;66.07;22.17;;;;;;;;;;5130020;27;20134;-42
2022/11/24 00:21:45;;;;;;;61.03;22.17;;;;;;;;;;5111795;27;20047;-42
2022/11/24 00:24:12;;;;;;;58.08;21.13;;;;;;;;;;5129597;27;20051;-42
2022/11/24 00:26:38;;;;;;;65.18;22.60;;;;;;;;;;5129100;27;20039;-42
2022/11/24 00:29:06;;;;;;;67.80;24.45;;;;;;;;;;5129912;27;20150;-49
2022/11/24 00:31:34;;;;;;;65.40;23.67;;;;;;;;;;5130557;27;20123;-43
2022/11/24 00:34:02;;;;;;;77.63;27.40;;;;;;;;;;5129634;27;20035;-42
2022/11/24 00:36:31;;;;;;;69.78;24.27;;;;;;;;;;5129429;27;20035;-42
2022/11/24 00:38:59;;;;;;;78.90;28.10;;;;;;;;;;5129564;27;20057;-43
2022/11/24 00:41:27;;;;;;;75.25;27.35;;;;;;;;;;5129380;27;20037;-42
2022/11/24 00:43:54;;;;;;;89.57;32.38;;;;;;;;;;5129493;27;20072;-42
2022/11/24 00:46:21;;;;;;;86.40;30.70;;;;;;;;;;5130376;27;20398;-41
2022/11/24 00:48:49;;;;;;;75.78;28.55;;;;;;;;;;5128816;27;20923;-42
2022/11/24 00:51:16;;;;;;;68.63;27.15;;;;;;;;;;5125441;27;20045;-41
2022/11/24 00:53:43;;;;;;;65.80;23.13;;;;;;;;;;5129246;27;20037;-41
2022/11/24 00:56:10;;;;;;;58.38;21.88;;;;;;;;;;5129122;27;20049;-42
2022/11/24 00:58:37;;;;;;;56.00;21.60;;;;;;;;;;5130144;27;20062;-41
2022/11/24 01:01:09;;;;;;;58.08;20.73;;;;;;;;;;5129284;27;20039;-42
2022/11/24 01:03:36;;;;;;;48.78;18.27;;;;;;;;;;5129389;27;20035;-42
2022/11/24 01:06:07;;;;;;;51.80;19.52;;;;;;;;;;5129122;28;20092;-41
2022/11/24 01:08:35;;;;;;;53.15;20.73;;;;;;;;;;5128770;28;20130;-42
2022/11/24 01:11:08;;;;;;;63.80;23.00;;;;;;;;;;5129271;28;20047;-42
2022/11/24 01:13:35;;;;;;;53.50;20.15;;;;;;;;;;5130280;28;20031;-41
2022/11/24 01:16:02;;;;;;;63.95;22.67;;;;;;;;;;5129088;28;20126;-41
2022/11/24 01:18:29;;;;;;;65.45;23.92;;;;;;;;;;5128033;28;20075;-41
2022/11/24 01:20:56;;;;;;;67.13;24.38;;;;;;;;;;5129551;27;20049;-42
2022/11/24 01:23:22;;;;;;;100.80;33.33;;;;;;;;;;5129028;28;20035;-41
2022/11/24 01:25:49;;;;;;;85.97;30.08;;;;;;;;;;5128981;28;20047;-41
2022/11/24 01:28:16;;;;;;;80.78;28.63;;;;;;;;;;5130041;28;20685;-42
2022/11/24 01:30:42;;;;;;;74.50;25.17;;;;;;;;;;5128435;28;20046;-42
2022/11/24 01:33:09;;;;;;;79.32;24.88;;;;;;;;;;5129215;28;20051;-42
2022/11/24 01:35:36;;;;;;;69.55;22.65;;;;;;;;;;5129398;28;22101;-42
2022/11/24 01:38:03;;;;;;;74.13;26.10;;;;;;;;;;5111036;28;20036;-42
2022/11/24 01:40:29;;;;;;;81.72;26.98;;;;;;;;;;5129682;28;20057;-41
2022/11/24 01:42:56;;;;;;;70.68;25.10;;;;;;;;;;5128718;27;20035;-42
2022/11/24 01:45:29;;;;;;;72.32;27.75;;;;;;;;;;5131935;27;20092;-41
2022/11/24 01:47:55;;;;;;;92.10;31.15;;;;;;;;;;5132859;27;20205;-42
2022/11/24 01:50:22;;;;;;;104.15;34.63;;;;;;;;;;5133246;27;20031;-42
2022/11/24 01:52:51;;;;;;;87.85;31.02;;;;;;;;;;5132879;27;20050;-42
2022/11/24 01:55:20;;;;;;;69.35;25.20;;;;;;;;;;5132317;27;20043;-41
2022/11/24 01:57:56;;;;;;;62.53;22.08;;;;;;;;;;5114113;27;20096;-42
2022/11/24 02:00:23;;;;;;;76.18;25.15;;;;;;;;;;5132322;27;20039;-42
2022/11/24 02:02:49;;;;;;;66.95;22.23;;;;;;;;;;5132326;27;20082;-41
2022/11/24 02:05:16;;;;;;;63.47;22.52;;;;;;;;;;5133257;27;20043;-41
2022/11/24 02:07:44;;;;;;;66.00;23.85;;;;;;;;;;5132750;27;20046;-41
2022/11/24 02:10:15;;;;;;;61.35;21.13;;;;;;;;;;5130979;27;20122;-42
2022/11/24 02:12:43;;;;;;;64.28;23.02;;;;;;;;;;5131554;27;20652;-42
2022/11/24 02:15:11;;;;;;;55.47;21.63;;;;;;;;;;5132299;27;20113;-42
2022/11/24 02:17:38;;;;;;;59.80;21.30;;;;;;;;;;5131469;27;20035;-42
2022/11/24 02:20:06;;;;;;;73.43;22.50;;;;;;;;;;5132410;27;20406;-41
2022/11/24 02:22:52;;;;;;;62.50;21.05;;;;;;;;;;5132671;27;20035;-42
2022/11/24 02:25:54;;;;;;;62.55;21.27;;;;;;;;;;5131651;27;20054;-42
2022/11/24 02:28:22;;;;;;;54.35;20.58;;;;;;;;;;5057298;28;20076;-42
2022/11/24 02:30:50;;;;;;;64.95;22.80;;;;;;;;;;5058507;28;20049;-42
2022/11/24 02:33:18;;;;;;;64.68;23.38;;;;;;;;;;5058994;28;20143;-42
2022/11/24 02:35:44;;;;;;;51.28;18.85;;;;;;;;;;5059525;28;20067;-42
2022/11/24 02:38:14;;;;;;;67.82;21.23;;;;;;;;;;5058621;28;20147;-43
2022/11/24 02:40:43;;;;;;;55.00;20.77;;;;;;;;;;5057085;28;20061;-42
2022/11/24 02:43:12;;;;;;;60.90;21.20;;;;;;;;;;5058520;28;20053;-42
2022/11/24 02:45:39;;;;;;;52.72;18.83;;;;;;;;;;5056973;28;20043;-42
2022/11/24 02:48:05;;;;;;;47.13;17.88;;;;;;;;;;5059848;28;20091;-41
2022/11/24 02:50:32;;;;;;;57.15;20.35;;;;;;;;;;5056905;28;20044;-42
2022/11/24 02:52:59;;;;;;;63.65;22.15;;;;;;;;;;5057468;28;20048;-42
2022/11/24 02:55:25;;;;;;;48.28;18.75;;;;;;;;;;5044221;28;20049;-42
2022/11/24 02:57:52;;;;;;;60.70;19.88;;;;;;;;;;5056847;28;20663;-42
2022/11/24 03:00:19;;;;;;;50.28;19.58;;;;;;;;;;5058239;28;20063;-42
2022/11/24 03:02:46;;;;;;;46.95;18.10;;;;;;;;;;5100883;27;20039;-42
2022/11/24 03:05:13;;;;;;;51.60;19.02;;;;;;;;;;5131333;27;20035;-42
2022/11/24 03:07:39;;;;;;;55.53;19.85;;;;;;;;;;5132452;27;20053;-42
2022/11/24 03:10:06;;;;;;;55.83;20.20;;;;;;;;;;5130816;27;20035;-42
2022/11/24 03:12:33;;;;;;;54.22;19.98;;;;;;;;;;5131055;27;20037;-42
2022/11/24 03:15:02;;;;;;;59.63;20.80;;;;;;;;;;5131202;27;20047;-43
2022/11/24 03:17:28;;;;;;;53.45;18.63;;;;;;;;;;5130214;27;20041;-41
2022/11/24 03:19:55;;;;;;;56.38;19.55;;;;;;;;;;5131396;27;20490;-42
2022/11/24 03:22:29;;;;;;;53.72;20.10;;;;;;;;;;5131598;27;20039;-42
2022/11/24 03:24:56;;;;;;;51.17;19.58;;;;;;;;;;5130556;27;20035;-42
2022/11/24 03:27:22;;;;;;;51.05;19.15;;;;;;;;;;5130895;27;20046;-42
2022/11/24 03:29:49;;;;;;;48.78;17.92;;;;;;;;;;5131224;27;20108;-41
2022/11/24 03:32:16;;;;;;;43.22;17.27;;;;;;;;;;5129800;27;20039;-41
2022/11/24 03:34:43;;;;;;;58.42;21.02;;;;;;;;;;5131039;27;20496;-42
2022/11/24 03:37:09;;;;;;;53.35;18.83;;;;;;;;;;5130503;27;20475;-42
2022/11/24 03:39:36;;;;;;;49.65;19.02;;;;;;;;;;5130602;27;20088;-42
2022/11/24 03:42:03;;;;;;;50.65;17.92;;;;;;;;;;5130050;27;20047;-42
2022/11/24 03:44:29;;;;;;;48.85;17.83;;;;;;;;;;5130516;27;20035;-42
2022/11/24 03:46:56;;;;;;;56.58;18.98;;;;;;;;;;5130284;27;20474;-42
2022/11/24 03:49:23;;;;;;;48.38;17.67;;;;;;;;;;5131187;27;20407;-42
2022/11/24 03:51:50;;;;;;;46.70;17.23;;;;;;;;;;5130845;27;20043;-41
2022/11/24 03:54:16;;;;;;;47.78;17.75;;;;;;;;;;5129873;27;20042;-42
2022/11/24 03:56:43;;;;;;;44.85;16.70;;;;;;;;;;5130271;27;20090;-42
2022/11/24 03:59:10;;;;;;;55.53;20.52;;;;;;;;;;5130318;27;20432;-42
2022/11/24 04:01:36;;;;;;;38.42;15.70;;;;;;;;;;5131422;27;20742;-42
2022/11/24 04:04:03;;;;;;;51.13;18.92;;;;;;;;;;5129858;27;20105;-43
2022/11/24 04:06:30;;;;;;;51.08;17.45;;;;;;;;;;5126740;27;20047;-42
2022/11/24 04:08:58;;;;;;;51.50;17.98;;;;;;;;;;5128189;27;20426;-41
2022/11/24 04:14:10;;;;;;;48.90;18.85;;;;;;;;;;5129563;27;20035;-42
2022/11/24 04:16:39;;;;;;;57.92;21.48;;;;;;;;;;5130302;27;20038;-42
2022/11/24 04:19:06;;;;;;;47.35;18.27;;;;;;;;;;5128983;27;20560;-41
2022/11/24 04:21:32;;;;;;;47.05;18.92;;;;;;;;;;5129811;27;20082;-41
2022/11/24 04:23:59;;;;;;;48.45;17.15;;;;;;;;;;5111352;27;20402;-42
2022/11/24 04:26:26;;;;;;;46.25;17.75;;;;;;;;;;5129498;27;20398;-41
2022/11/24 04:28:53;;;;;;;49.67;18.08;;;;;;;;;;5130178;27;20563;-42
2022/11/24 04:31:19;;;;;;;51.90;18.73;;;;;;;;;;5130450;27;20043;-42
2022/11/24 04:33:46;;;;;;;46.53;17.08;;;;;;;;;;5129420;27;20039;-41
2022/11/24 04:36:13;;;;;;;41.78;15.65;;;;;;;;;;5129541;27;20039;-41
2022/11/24 04:38:39;;;;;;;35.38;15.05;;;;;;;;;;5129580;27;20043;-41
2022/11/24 04:41:26;;;;;;;43.13;17.48;;;;;;;;;;5129696;27;20662;-42
2022/11/24 04:43:53;;;;;;;41.38;15.25;;;;;;;;;;5129952;27;20517;-42
2022/11/24 04:46:19;;;;;;;44.67;16.08;;;;;;;;;;5129867;27;20038;-42
2022/11/24 04:48:46;;;;;;;43.65;17.48;;;;;;;;;;5129115;27;20070;-41
2022/11/24 04:51:14;;;;;;;41.40;15.88;;;;;;;;;;5129738;27;20031;-42
2022/11/24 04:53:40;;;;;;;37.95;16.02;;;;;;;;;;5129312;27;20053;-42
2022/11/24 04:56:07;;;;;;;49.22;19.20;;;;;;;;;;5129314;27;20035;-42
2022/11/24 04:58:34;;;;;;;46.00;17.52;;;;;;;;;;5130272;27;20567;-41
2022/11/24 05:01:05;;;;;;;54.40;20.13;;;;;;;;;;5128460;27;20062;-42
2022/11/24 05:03:31;;;;;;;53.58;21.55;;;;;;;;;;5129123;27;20043;-41
2022/11/24 05:05:58;;;;;;;57.15;19.80;;;;;;;;;;5129230;28;20074;-42
2022/11/24 05:08:25;;;;;;;48.85;18.80;;;;;;;;;;5125349;28;20043;-41
2022/11/24 05:10:51;;;;;;;49.90;21.00;;;;;;;;;;5129524;28;20436;-42
2022/11/24 05:13:18;;;;;;;57.28;21.92;;;;;;;;;;5129048;28;20039;-42
2022/11/24 05:15:45;;;;;;;59.20;22.73;;;;;;;;;;5129042;28;20055;-42
2022/11/24 05:18:12;;;;;;;53.58;22.73;;;;;;;;;;5128936;27;20042;-41
2022/11/24 05:20:39;;;;;;;54.58;21.42;;;;;;;;;;5133482;27;20062;-42
2022/11/24 05:23:06;;;;;;;48.78;19.80;;;;;;;;;;5133314;27;20043;-41
2022/11/24 05:25:33;;;;;;;46.08;18.95;;;;;;;;;;5133867;27;20043;-41
2022/11/24 05:28:04;;;;;;;59.40;21.48;;;;;;;;;;5133131;27;20058;-41
2022/11/24 05:30:30;;;;;;;62.70;23.63;;;;;;;;;;5132545;27;20049;-41
2022/11/24 05:32:57;;;;;;;60.03;24.17;;;;;;;;;;5133478;27;20065;-41
2022/11/24 05:35:24;;;;;;;54.65;22.88;;;;;;;;;;5132823;27;20035;-42
2022/11/24 05:37:50;;;;;;;53.40;22.17;;;;;;;;;;5133657;27;20054;-42
2022/11/24 05:40:17;;;;;;;62.55;22.70;;;;;;;;;;5132937;27;20071;-42
2022/11/24 05:42:44;;;;;;;59.80;22.33;;;;;;;;;;5132881;27;20047;-42
2022/11/24 05:45:17;;;;;;;55.80;21.45;;;;;;;;;;5132773;27;20035;-42
2022/11/24 05:47:44;;;;;;;51.58;20.80;;;;;;;;;;5133171;27;20134;-42
2022/11/24 05:50:12;;;;;;;61.10;23.50;;;;;;;;;;5132867;27;20039;-41
2022/11/24 05:52:39;;;;;;;54.72;22.10;;;;;;;;;;5130092;27;20046;-41
2022/11/24 05:55:06;;;;;;;53.42;21.55;;;;;;;;;;5132769;27;20039;-41
2022/11/24 05:57:33;;;;;;;55.78;21.77;;;;;;;;;;5132796;27;20035;-41
2022/11/24 06:00:00;;;;;;;50.38;19.73;;;;;;;;;;5130787;27;20027;-41
2022/11/24 06:02:26;;;;;;;55.45;20.77;;;;;;;;;;5130972;27;20049;-42
2022/11/24 06:04:53;;;;;;;48.78;20.50;;;;;;;;;;5129253;27;20073;-41
2022/11/24 06:07:19;;;;;;;43.95;18.92;;;;;;;;;;5132818;27;20043;-41
2022/11/24 06:09:46;;;;;;;48.95;19.15;;;;;;;;;;5131908;27;20039;-41
2022/11/24 06:12:13;;;;;;;59.33;23.73;;;;;;;;;;5132321;27;20039;-42
2022/11/24 06:14:39;;;;;;;51.53;20.63;;;;;;;;;;5132168;27;20042;-42
2022/11/24 06:17:06;;;;;;;63.00;22.58;;;;;;;;;;5130637;27;20047;-42
2022/11/24 06:19:33;;;;;;;47.47;20.20;;;;;;;;;;5133590;27;20050;-42
2022/11/24 06:22:06;;;;;;;54.88;21.58;;;;;;;;;;5132391;27;20035;-42
2022/11/24 06:24:33;;;;;;;56.90;22.08;;;;;;;;;;5131316;27;20066;-42
2022/11/24 06:27:00;;;;;;;49.58;20.95;;;;;;;;;;5132536;27;20069;-41
2022/11/24 06:29:26;;;;;;;50.42;21.15;;;;;;;;;;5131749;27;20035;-41
2022/11/24 06:31:53;;;;;;;60.28;24.10;;;;;;;;;;5132820;27;20051;-41
2022/11/24 06:34:20;;;;;;;53.47;22.58;;;;;;;;;;5132454;27;20494;-42
2022/11/24 06:36:46;;;;;;;57.75;22.50;;;;;;;;;;5131892;27;20035;-41
2022/11/24 06:39:13;;;;;;;61.42;23.95;;;;;;;;;;5131657;27;20391;-42
2022/11/24 06:41:39;;;;;;;62.75;25.08;;;;;;;;;;5131892;27;20042;-42
2022/11/24 06:44:06;;;;;;;55.92;21.45;;;;;;;;;;5132210;27;20047;-42
2022/11/24 06:46:32;;;;;;;65.60;23.60;;;;;;;;;;5132572;27;20039;-41
2022/11/24 06:48:59;;;;;;;54.25;21.50;;;;;;;;;;5131803;27;20111;-42
2022/11/24 06:51:26;;;;;;;49.53;20.02;;;;;;;;;;5131801;27;20039;-43
2022/11/24 06:53:53;;;;;;;57.85;21.33;;;;;;;;;;5131710;27;20110;-42
2022/11/24 06:56:19;;;;;;;62.65;24.88;;;;;;;;;;5128075;27;20032;-43
2022/11/24 06:58:47;;;;;;;63.88;25.13;;;;;;;;;;5132628;27;20045;-42
2022/11/24 07:01:17;;;;;;;54.67;20.90;;;;;;;;;;5131013;27;20041;-44
2022/11/24 07:03:44;;;;;;;48.42;19.65;;;;;;;;;;5131527;27;20058;-41
2022/11/24 07:06:11;;;;;;;46.28;18.98;;;;;;;;;;5131574;27;20039;-41
2022/11/24 07:08:37;;;;;;;51.38;18.50;;;;;;;;;;5131495;27;20063;-42
2022/11/24 07:11:05;;;;;;;80.05;29.35;;;;;;;;;;5130713;27;20517;-41
2022/11/24 07:13:31;;;;;;;57.28;21.17;;;;;;;;;;5132249;27;20058;-42
2022/11/24 07:15:58;;;;;;;54.63;20.38;;;;;;;;;;5131103;27;20440;-42
2022/11/24 07:18:25;;;;;;;68.50;28.35;;;;;;;;;;5130179;27;20042;-41
2022/11/24 07:20:51;;;;;;;84.15;33.10;;;;;;;;;;5131361;27;20084;-41
2022/11/24 07:23:18;;;;;;;83.45;33.95;;;;;;;;;;5130993;27;20402;-41
2022/11/24 07:25:44;;;;;;;72.03;29.70;;;;;;;;;;5131178;27;20522;-43
2022/11/24 07:28:11;;;;;;;66.38;25.38;;;;;;;;;;5130882;27;20131;-41
2022/11/24 07:30:37;;;;;;;85.07;32.10;;;;;;;;;;5130650;27;20045;-42
2022/11/24 07:33:04;;;;;;;67.47;27.60;;;;;;;;;;5131325;27;20063;-42
2022/11/24 07:35:30;;;;;;;57.95;24.42;;;;;;;;;;5130920;27;20027;-42
2022/11/24 07:37:57;;;;;;;71.38;26.02;;;;;;;;;;5130962;27;20053;-42
2022/11/24 07:40:25;;;;;;;51.17;22.10;;;;;;;;;;5128965;27;20459;-42
2022/11/24 07:42:52;;;;;;;43.40;18.65;;;;;;;;;;5129610;27;20490;-42
2022/11/24 07:45:19;;;;;;;48.95;20.05;;;;;;;;;;5130642;27;20743;-41
2022/11/24 07:47:46;;;;;;;41.42;18.33;;;;;;;;;;5131198;27;20047;-41
2022/11/24 07:50:12;;;;;;;41.60;16.92;;;;;;;;;;5130923;27;20044;-42
2022/11/24 07:52:39;;;;;;;43.97;18.38;;;;;;;;;;5131333;27;20058;-42
2022/11/24 07:55:06;;;;;;;39.08;16.65;;;;;;;;;;5129925;27;20479;-41
2022/11/24 07:57:33;;;;;;;39.50;15.05;;;;;;;;;;5130313;27;20392;-41
2022/11/24 07:59:59;;;;;;;39.15;16.02;;;;;;;;;;5130611;27;20491;-43
2022/11/24 08:02:26;;;;;;;46.00;17.42;;;;;;;;;;5126462;27;20096;-42
2022/11/24 08:04:52;;;;;;;37.65;16.40;;;;;;;;;;5113268;27;20054;-41
2022/11/24 08:07:19;;;;;;;35.13;15.70;;;;;;;;;;5130438;27;20096;-41
2022/11/24 08:09:46;;;;;;;40.97;17.77;;;;;;;;;;5129532;27;20123;-42
2022/11/24 08:12:12;;;;;;;36.40;16.00;;;;;;;;;;5130649;27;20039;-41
2022/11/24 08:14:39;;;;;;;40.50;17.13;;;;;;;;;;5129886;27;20050;-41
2022/11/24 08:17:05;;;;;;;44.70;18.13;;;;;;;;;;5129629;27;20047;-41
2022/11/24 08:19:33;;;;;;;47.70;18.80;;;;;;;;;;5130712;27;20104;-41
2022/11/24 08:22:00;;;;;;;37.08;16.27;;;;;;;;;;5129719;27;20035;-41
2022/11/24 08:24:26;;;;;;;47.22;18.48;;;;;;;;;;5129363;27;20076;-41
2022/11/24 08:26:53;;;;;;;40.15;18.52;;;;;;;;;;5129997;27;20047;-41
2022/11/24 08:29:19;;;;;;;48.03;19.27;;;;;;;;;;5129585;27;20035;-41
2022/11/24 08:31:46;;;;;;;42.40;17.90;;;;;;;;;;5131271;27;20066;-41
2022/11/24 08:34:12;;;;;;;43.38;17.52;;;;;;;;;;5129848;27;20062;-41
2022/11/24 08:36:39;;;;;;;43.70;18.70;;;;;;;;;;5129377;27;20118;-41
2022/11/24 08:39:05;;;;;;;49.80;19.20;;;;;;;;;;5129234;27;20035;-41
2022/11/24 08:41:32;;;;;;;43.00;17.70;;;;;;;;;;5129815;27;20039;-41
2022/11/24 08:43:59;;;;;;;46.03;18.67;;;;;;;;;;5129972;27;20069;-41
2022/11/24 08:46:25;;;;;;;45.63;19.25;;;;;;;;;;5129992;27;20046;-41
2022/11/24 08:48:52;;;;;;;47.47;19.48;;;;;;;;;;5129305;27;20036;-41
2022/11/24 08:51:20;;;;;;;43.95;17.42;;;;;;;;;;5129986;27;20038;-41
2022/11/24 08:53:47;;;;;;;36.03;15.52;;;;;;;;;;5128675;27;20047;-41
2022/11/24 08:56:13;;;;;;;36.92;15.90;;;;;;;;;;5129191;27;20043;-41
2022/11/24 08:58:40;;;;;;;41.47;17.73;;;;;;;;;;5130368;27;20043;-41
2022/11/24 09:01:09;;;;;;;47.33;16.90;;;;;;;;;;5125356;27;20069;-42
2022/11/24 09:03:38;;;;;;;54.05;22.27;;;;;;;;;;5125565;27;20039;-42
2022/11/24 09:06:10;;;;;;;44.70;19.48;;;;;;;;;;5130050;27;20043;-42
2022/11/24 09:08:37;;;;;;;47.35;20.38;;;;;;;;;;5128919;28;20041;-42
2022/11/24 09:11:08;;;;;;;48.42;21.70;;;;;;;;;;5128978;28;20406;-42
2022/11/24 09:13:35;;;;;;;44.25;19.25;;;;;;;;;;5130027;28;20479;-42
2022/11/24 09:16:06;;;;;;;45.95;19.55;;;;;;;;;;5129518;28;20122;-42
2022/11/24 09:18:32;;;;;;;45.90;17.23;;;;;;;;;;5128835;28;20043;-42
2022/11/24 09:21:06;;;;;;;44.53;18.58;;;;;;;;;;5129407;28;20042;-42
2022/11/24 09:23:33;;;;;;;39.03;17.15;;;;;;;;;;5129155;28;20043;-42
2022/11/24 09:26:07;;;;;;;45.38;18.83;;;;;;;;;;5129224;28;20047;-42
2022/11/24 09:28:33;;;;;;;44.15;18.00;;;;;;;;;;5129667;28;20081;-42
2022/11/24 09:31:01;;;;;;;40.50;17.83;;;;;;;;;;5129108;28;20487;-42
2022/11/24 09:33:28;;;;;;;41.45;17.70;;;;;;;;;;5129630;28;20114;-42
2022/11/24 09:35:54;;;;;;;45.85;19.45;;;;;;;;;;5128856;28;20035;-42
2022/11/24 09:38:21;;;;;;;38.42;16.95;;;;;;;;;;5129035;28;20118;-41
2022/11/24 09:40:49;;;;;;;43.25;18.92;;;;;;;;;;5129756;28;20471;-41
2022/11/24 09:43:36;;;;;;;44.65;20.05;;;;;;;;;;5128897;28;20043;-42
2022/11/24 09:46:07;;;;;;;43.58;20.67;;;;;;;;;;5127457;28;20546;-42
2022/11/24 09:48:38;;;;;;;52.33;20.38;;;;;;;;;;5124869;28;20039;-42
2022/11/24 09:51:08;;;;;;;51.35;20.95;;;;;;;;;;5128933;28;20043;-42
2022/11/24 09:53:43;;;;;;;48.78;20.23;;;;;;;;;;5125853;28;20045;-42
2022/11/24 09:56:29;;;;;;;46.38;21.38;;;;;;;;;;5129201;28;20660;-42
2022/11/24 09:58:59;;;;;;;47.78;20.00;;;;;;;;;;5126249;28;20059;-42
2022/11/24 10:01:28;;;;;;;45.45;19.27;;;;;;;;;;5129171;28;20463;-41
2022/11/24 10:03:55;;;;;;;46.40;20.17;;;;;;;;;;5128952;28;20099;-42
2022/11/24 10:06:30;;;;;;;57.53;22.05;;;;;;;;;;5124453;27;20039;-42
2022/11/24 10:09:11;;;;;;;59.20;23.67;;;;;;;;;;5132258;27;20062;-41
2022/11/24 10:11:40;;;;;;;49.38;19.48;;;;;;;;;;5130865;27;20039;-42
2022/11/24 10:14:25;;;;;;;54.83;22.13;;;;;;;;;;5132934;27;20043;-41
2022/11/24 10:16:55;;;;;;;48.10;21.45;;;;;;;;;;5133290;27;20035;-41
2022/11/24 10:19:40;;;;;;;63.15;25.92;;;;;;;;;;5132567;27;20399;-43
2022/11/24 10:22:26;;;;;;;56.72;23.95;;;;;;;;;;5130210;27;20134;-41
2022/11/24 10:25:00;;;;;;;63.35;29.05;;;;;;;;;;5129897;27;20051;-41
2022/11/24 10:27:33;;;;;;;67.95;27.73;;;;;;;;;;5128550;27;20039;-41
2022/11/24 10:30:00;;;;;;;63.58;28.92;;;;;;;;;;5132483;27;20038;-42
2022/11/24 10:32:35;;;;;;;66.32;28.60;;;;;;;;;;5131911;27;20041;-42
2022/11/24 10:35:12;;;;;;;69.90;30.55;;;;;;;;;;5132276;27;20460;-41
2022/11/24 10:37:44;;;;;;;61.83;27.80;;;;;;;;;;5131758;27;20043;-42
2022/11/24 10:40:13;;;;;;;99.47;38.75;;;;;;;;;;5131750;27;20040;-42
2022/11/24 10:42:59;;;;;;;110.35;44.67;;;;;;;;;;5128643;27;20031;-41
2022/11/24 10:45:27;;;;;;;86.32;36.00;;;;;;;;;;5131905;27;20549;-41
2022/11/24 10:47:53;;;;;;;53.67;24.95;;;;;;;;;;5132031;27;20121;-42
2022/11/24 10:50:21;;;;;;;85.03;35.40;;;;;;;;;;5112551;27;20043;-41
2022/11/24 10:52:54;;;;;;;87.32;33.22;;;;;;;;;;5132651;27;20039;-41
2022/11/24 10:55:21;;;;;;;90.70;37.30;;;;;;;;;;5131669;27;20043;-42
2022/11/24 10:57:47;;;;;;;68.50;28.08;;;;;;;;;;5113391;27;20123;-42
2022/11/24 11:00:17;;;;;;;71.40;30.70;;;;;;;;;;5129309;27;20043;-42
2022/11/24 11:02:44;;;;;;;66.35;25.88;;;;;;;;;;5127450;27;20070;-42
2022/11/24 11:05:29;;;;;;;65.13;27.73;;;;;;;;;;5131442;27;20122;-42
2022/11/24 11:08:09;;;;;;;60.70;26.33;;;;;;;;;;5129904;27;20483;-42
2022/11/24 11:10:35;;;;;;;55.63;23.92;;;;;;;;;;5131395;27;20451;-42
2022/11/24 11:13:20;;;;;;;72.80;30.15;;;;;;;;;;5131099;27;20043;-41
2022/11/24 11:15:46;;;;;;;63.03;26.80;;;;;;;;;;5129093;27;20562;-41
2022/11/24 11:18:15;;;;;;;54.58;24.38;;;;;;;;;;5131089;27;20131;-42
2022/11/24 11:20:48;;;;;;;56.42;23.10;;;;;;;;;;5131344;27;20100;-42
2022/11/24 11:23:21;;;;;;;62.35;23.27;;;;;;;;;;5131201;27;20070;-41
2022/11/24 11:25:48;;;;;;;44.92;18.98;;;;;;;;;;5113316;27;20415;-42
2022/11/24 11:28:23;;;;;;;51.00;22.02;;;;;;;;;;5130761;27;20054;-42
2022/11/24 11:30:58;;;;;;;48.22;22.48;;;;;;;;;;5130856;27;20511;-42
2022/11/24 11:33:53;;;;;;;52.17;22.52;;;;;;;;;;5130024;27;20122;-42
2022/11/24 11:36:31;;;;;;;53.45;23.95;;;;;;;;;;5130780;27;20035;-41
2022/11/24 11:38:58;;;;;;;61.15;26.25;;;;;;;;;;5130670;27;20031;-41
2022/11/24 11:41:28;;;;;;;49.00;23.35;;;;;;;;;;5129659;27;20045;-41
2022/11/24 11:44:13;;;;;;;60.30;26.15;;;;;;;;;;5127833;27;20506;-42
2022/11/24 11:46:41;;;;;;;49.15;21.73;;;;;;;;;;5131170;27;20061;-41
2022/11/24 11:49:10;;;;;;;49.78;22.27;;;;;;;;;;5130509;27;20043;-41
2022/11/24 11:51:56;;;;;;;46.70;21.42;;;;;;;;;;5130781;27;20042;-42
2022/11/24 11:54:47;;;;;;;59.22;22.90;;;;;;;;;;5125717;27;20035;-41
2022/11/24 11:57:28;;;;;;;43.85;20.45;;;;;;;;;;5126724;27;20122;-41
2022/11/24 12:00:00;;;;;;;54.95;22.98;;;;;;;;;;5130105;27;20042;-42
2022/11/24 12:02:32;;;;;;;63.42;25.52;;;;;;;;;;5127798;27;20047;-41
2022/11/24 12:05:00;;;;;;;46.92;22.05;;;;;;;;;;5127057;27;20061;-42
2022/11/24 12:07:46;;;;;;;52.45;23.50;;;;;;;;;;5130663;27;20039;-41
2022/11/24 12:10:15;;;;;;;57.72;26.55;;;;;;;;;;5128270;27;20042;-42
2022/11/24 12:12:48;;;;;;;55.60;25.77;;;;;;;;;;5129490;27;20035;-41
2022/11/24 12:15:37;;;;;;;50.67;21.55;;;;;;;;;;5129544;27;20468;-41
2022/11/24 12:18:23;;;;;;;50.85;21.80;;;;;;;;;;5115644;27;20055;-42
2022/11/24 12:21:26;;;;;;;54.40;23.10;;;;;;;;;;5127090;27;20051;-41
2022/11/24 12:23:53;;;;;;;;;;;;;;;;;;5127170;27;20107;-40
2022/11/24 12:26:19;;;;;;;59.10;25.75;;;;;;;;;;5129571;27;19923;-42
2022/11/24 12:28:55;;;;;;;45.05;18.60;;;;;;;;;;5130082;27;20043;-41
2022/11/24 12:31:21;;;;;;;39.10;17.73;;;;;;;;;;5129077;27;20043;-42
2022/11/24 12:34:11;;;;;;;44.13;19.80;;;;;;;;;;5129483;27;20047;-42
2022/11/24 12:36:47;;;;;;;50.60;22.83;;;;;;;;;;5115379;27;20048;-42
2022/11/24 12:39:20;;;;;;;43.78;20.30;;;;;;;;;;5129224;27;20505;-43
2022/11/24 12:41:59;;;;;;;47.08;21.23;;;;;;;;;;5129739;27;20050;-41
2022/11/24 12:44:28;;;;;;;56.78;23.48;;;;;;;;;;5129006;27;20047;-41
2022/11/24 12:46:58;;;;;;;54.97;23.00;;;;;;;;;;5126017;27;20429;-41
2022/11/24 12:49:27;;;;;;;55.20;22.35;;;;;;;;;;5129848;27;20039;-41
2022/11/24 12:51:58;;;;;;;53.30;23.30;;;;;;;;;;5129464;27;20041;-42
2022/11/24 12:54:28;;;;;;;49.75;20.55;;;;;;;;;;5128478;27;20039;-42
2022/11/24 12:57:03;;;;;;;52.50;23.65;;;;;;;;;;5127311;27;20035;-42
2022/11/24 12:59:53;;;;;;;49.63;22.85;;;;;;;;;;5125319;27;20039;-42
2022/11/24 13:02:19;;;;;;;53.78;23.60;;;;;;;;;;5127892;28;20402;-42
2022/11/24 13:04:50;;;;;;;159.07;73.22;;;;;;;;;;5129418;27;20069;-42
2022/11/24 13:07:21;;;;;;;128.13;54.08;;;;;;;;;;5128256;27;20114;-41
2022/11/24 13:10:06;;;;;;;107.07;48.53;;;;;;;;;;5128386;28;20039;-43
2022/11/24 13:12:32;;;;;;;90.07;38.72;;;;;;;;;;5127022;28;20083;-42
2022/11/24 13:14:59;;;;;;;71.65;29.45;;;;;;;;;;5128818;28;20042;-42
2022/11/24 13:17:30;;;;;;;63.22;25.65;;;;;;;;;;5128928;27;20074;-42
2022/11/24 13:20:22;;;;;;;58.83;23.92;;;;;;;;;;5127759;28;20043;-42
2022/11/24 13:22:53;;;;;;;61.97;25.60;;;;;;;;;;5111262;28;20411;-42
2022/11/24 13:25:29;;;;;;;111.38;46.10;;;;;;;;;;5128638;28;20129;-42
2022/11/24 13:27:58;;;;;;;117.88;47.05;;;;;;;;;;5125331;28;20043;-43
2022/11/24 13:30:34;;;;;;;97.00;43.17;;;;;;;;;;5128571;27;20039;-42
2022/11/24 13:33:21;;;;;;;69.72;31.40;;;;;;;;;;5126093;28;20407;-43
2022/11/24 13:36:01;;;;;;;66.22;28.60;;;;;;;;;;5115366;28;20088;-43
2022/11/24 13:38:37;;;;;;;68.30;29.27;;;;;;;;;;5125689;27;20514;-42
2022/11/24 13:41:06;;;;;;;63.80;26.25;;;;;;;;;;5131897;27;20521;-42
2022/11/24 13:44:12;;;;;;;66.28;30.13;;;;;;;;;;5114873;27;20047;-41
2022/11/24 13:46:56;;;;;;;70.20;29.73;;;;;;;;;;5133382;27;20399;-45
2022/11/24 13:49:37;;;;;;;52.10;24.90;;;;;;;;;;5133750;27;20046;-42
2022/11/24 13:52:23;;;;;;;68.40;29.30;;;;;;;;;;5113512;27;20035;-42
2022/11/24 13:54:49;;;;;;;55.78;24.08;;;;;;;;;;5132243;27;20046;-41
2022/11/24 13:57:33;;;;;;;59.80;25.20;;;;;;;;;;5132103;27;20039;-42
2022/11/24 14:00:00;;;;;;;62.15;26.20;;;;;;;;;;5100772;27;20043;-42
2022/11/24 14:02:26;;;;;;;60.35;26.08;;;;;;;;;;5132151;27;20051;-42
2022/11/24 14:04:54;;;;;;;73.05;32.20;;;;;;;;;;5133358;27;20507;-42
2022/11/24 14:07:21;;;;;;;63.58;30.05;;;;;;;;;;5132894;27;20058;-42
2022/11/24 14:09:51;;;;;;;72.05;31.25;;;;;;;;;;5131459;27;20038;-41
2022/11/24 14:12:20;;;;;;;67.20;27.10;;;;;;;;;;5128004;27;20035;-42
2022/11/24 14:14:48;;;;;;;66.15;27.70;;;;;;;;;;5132063;27;20112;-43
2022/11/24 14:17:19;;;;;;;70.90;28.25;;;;;;;;;;5131999;27;20382;-42
2022/11/24 14:19:46;;;;;;;60.50;25.55;;;;;;;;;;5133095;27;20053;-41
2022/11/24 14:22:18;;;;;;;60.40;24.65;;;;;;;;;;5132153;27;20043;-42
2022/11/24 14:24:50;;;;;;;58.58;23.95;;;;;;;;;;5128647;27;20474;-42
2022/11/24 14:27:19;;;;;;;60.72;25.27;;;;;;;;;;5131580;27;20043;-41
2022/11/24 14:29:52;;;;;;;71.93;27.98;;;;;;;;;;5131705;27;20043;-42
2022/11/24 14:32:20;;;;;;;72.65;28.35;;;;;;;;;;5132056;27;20483;-42
2022/11/24 14:34:47;;;;;;;75.60;28.40;;;;;;;;;;5132544;27;20054;-42